sensor_id;sensor_type;location;lat;lon;timestamp;pressure;altitude;pressure_sealevel;temperature;humidity
13420;BME280;6781;58.440;15.470;2023-09-08T00:01:22;103519.09;;;15.20;100.00
13420;BME280;6781;58.440;15.470;2023-09-08T00:03:49;103563.97;;;15.45;100.00
13420;BME280;6781;58.440;15.470;2023-09-08T00:06:16;103583.38;;;15.58;100.00
13420;BME280;6781;58.440;15.470;2023-09-08T00:08:43;103547.38;;;15.29;100.00
13420;BME280;6781;58.440;15.470;2023-09-08T00:11:10;103430.69;;;14.42;100.00
13420;BME280;6781;58.440;15.470;2023-09-08T00:13:37;103578.22;;;15.40;100.00
13420;BME280;6781;58.440;15.470;2023-09-08T00:16:05;103625.84;;;15.63;100.00
13420;BME280;6781;58.440;15.470;2023-09-08T00:18:34;103596.19;;;15.63;100.00
13420;BME280;6781;58.440;15.470;2023-09-08T00:21:01;103534.00;;;15.18;100.00
13420;BME280;6781;58.440;15.470;2023-09-08T00:23:28;103485.72;;;14.90;100.00
13420;BME280;6781;58.440;15.470;2023-09-08T00:25:55;103439.75;;;14.69;100.00
13420;BME280;6781;58.440;15.470;2023-09-08T00:28:24;103451.75;;;14.73;100.00
13420;BME280;6781;58.440;15.470;2023-09-08T00:30:51;103512.94;;;15.04;100.00
13420;BME280;6781;58.440;15.470;2023-09-08T00:33:17;103406.97;;;14.27;100.00
13420;BME280;6781;58.440;15.470;2023-09-08T00:35:48;103455.75;;;14.63;100.00
13420;BME280;6781;58.440;15.470;2023-09-08T00:38:15;103593.53;;;15.47;100.00
13420;BME280;6781;58.440;15.470;2023-09-08T00:40:43;103618.91;;;15.45;100.00
13420;BME280;6781;58.440;15.470;2023-09-08T00:43:10;103505.25;;;14.83;100.00
13420;BME280;6781;58.440;15.470;2023-09-08T00:45:38;103550.22;;;15.07;100.00
13420;BME280;6781;58.440;15.470;2023-09-08T00:48:07;103614.06;;;15.38;100.00
13420;BME280;6781;58.440;15.470;2023-09-08T00:50:34;103614.00;;;15.39;100.00
13420;BME280;6781;58.440;15.470;2023-09-08T00:53:04;103612.16;;;15.41;100.00
13420;BME280;6781;58.440;15.470;2023-09-08T00:55:34;103528.47;;;14.89;100.00
13420;BME280;6781;58.440;15.470;2023-09-08T00:58:02;103415.75;;;14.26;100.00
13420;BME280;6781;58.440;15.470;2023-09-08T01:00:29;103602.59;;;15.40;100.00
13420;BME280;6781;58.440;15.470;2023-09-08T01:02:57;103599.16;;;15.40;100.00
13420;BME280;6781;58.440;15.470;2023-09-08T01:05:24;103555.38;;;15.26;100.00
13420;BME280;6781;58.440;15.470;2023-09-08T01:07:52;103511.09;;;15.06;100.00
13420;BME280;6781;58.440;15.470;2023-09-08T01:10:23;103551.59;;;15.49;100.00
13420;BME280;6781;58.440;15.470;2023-09-08T01:12:50;103425.00;;;14.85;100.00
13420;BME280;6781;58.440;15.470;2023-09-08T01:15:17;103403.72;;;14.76;100.00
13420;BME280;6781;58.440;15.470;2023-09-08T01:17:44;103526.44;;;15.46;100.00
13420;BME280;6781;58.440;15.470;2023-09-08T01:20:17;103501.44;;;15.41;100.00
13420;BME280;6781;58.440;15.470;2023-09-08T01:23:11;103478.81;;;15.40;100.00
13420;BME280;6781;58.440;15.470;2023-09-08T01:25:43;103427.44;;;15.06;100.00
13420;BME280;6781;58.440;15.470;2023-09-08T01:28:13;103354.31;;;14.71;100.00
13420;BME280;6781;58.440;15.470;2023-09-08T01:30:41;103408.88;;;15.10;100.00
13420;BME280;6781;58.440;15.470;2023-09-08T01:33:08;103438.28;;;15.31;100.00
13420;BME280;6781;58.440;15.470;2023-09-08T01:35:36;103374.41;;;14.86;100.00
13420;BME280;6781;58.440;15.470;2023-09-08T01:38:03;103290.53;;;14.41;100.00
13420;BME280;6781;58.440;15.470;2023-09-08T01:40:30;103410.63;;;15.27;100.00
13420;BME280;6781;58.440;15.470;2023-09-08T01:42:58;103411.69;;;15.23;100.00
13420;BME280;6781;58.440;15.470;2023-09-08T01:45:25;103402.31;;;15.19;100.00
13420;BME280;6781;58.440;15.470;2023-09-08T01:47:53;103248.94;;;14.38;100.00
13420;BME280;6781;58.440;15.470;2023-09-08T01:50:20;103200.91;;;14.07;100.00
13420;BME280;6781;58.440;15.470;2023-09-08T01:52:48;103378.97;;;15.16;100.00
13420;BME280;6781;58.440;15.470;2023-09-08T01:55:15;103313.53;;;14.84;100.00
13420;BME280;6781;58.440;15.470;2023-09-08T01:57:42;103365.13;;;15.14;100.00
13420;BME280;6781;58.440;15.470;2023-09-08T02:00:11;103294.97;;;14.73;100.00
13420;BME280;6781;58.440;15.470;2023-09-08T02:05:14;103354.22;;;15.06;100.00
13420;BME280;6781;58.440;15.470;2023-09-08T02:07:41;103340.56;;;15.01;100.00
13420;BME280;6781;58.440;15.470;2023-09-08T02:10:09;103302.22;;;14.68;100.00
13420;BME280;6781;58.440;15.470;2023-09-08T02:12:36;103295.16;;;14.53;100.00
13420;BME280;6781;58.440;15.470;2023-09-08T02:15:04;103335.53;;;14.80;100.00
13420;BME280;6781;58.440;15.470;2023-09-08T02:17:34;103318.22;;;14.62;100.00
13420;BME280;6781;58.440;15.470;2023-09-08T02:20:01;103361.78;;;14.94;100.00
13420;BME280;6781;58.440;15.470;2023-09-08T02:22:28;103322.44;;;14.64;100.00
13420;BME280;6781;58.440;15.470;2023-09-08T02:24:55;103351.41;;;14.93;100.00
13420;BME280;6781;58.440;15.470;2023-09-08T02:27:23;103289.88;;;14.54;100.00
13420;BME280;6781;58.440;15.470;2023-09-08T02:29:50;103338.78;;;14.68;100.00
13420;BME280;6781;58.440;15.470;2023-09-08T02:32:17;103266.47;;;14.18;100.00
13420;BME280;6781;58.440;15.470;2023-09-08T02:34:46;103283.66;;;14.22;100.00
13420;BME280;6781;58.440;15.470;2023-09-08T02:37:14;103354.47;;;14.68;100.00
13420;BME280;6781;58.440;15.470;2023-09-08T02:39:41;103374.56;;;14.83;100.00
13420;BME280;6781;58.440;15.470;2023-09-08T02:42:08;103284.28;;;14.10;100.00
13420;BME280;6781;58.440;15.470;2023-09-08T02:44:35;103327.69;;;14.47;100.00
13420;BME280;6781;58.440;15.470;2023-09-08T02:47:03;103388.03;;;14.76;100.00
13420;BME280;6781;58.440;15.470;2023-09-08T02:49:31;103322.66;;;14.08;100.00
13420;BME280;6781;58.440;15.470;2023-09-08T02:52:00;103215.13;;;13.50;100.00
13420;BME280;6781;58.440;15.470;2023-09-08T02:54:27;103380.16;;;14.43;100.00
13420;BME280;6781;58.440;15.470;2023-09-08T02:56:54;103404.41;;;14.45;100.00
13420;BME280;6781;58.440;15.470;2023-09-08T02:59:21;103366.66;;;14.16;100.00
13420;BME280;6781;58.440;15.470;2023-09-08T03:01:48;103460.06;;;14.64;100.00
13420;BME280;6781;58.440;15.470;2023-09-08T03:04:15;103478.34;;;14.64;100.00
13420;BME280;6781;58.440;15.470;2023-09-08T03:06:42;103439.72;;;14.34;100.00
13420;BME280;6781;58.440;15.470;2023-09-08T03:09:10;103275.63;;;13.20;100.00
13420;BME280;6781;58.440;15.470;2023-09-08T03:11:37;103445.97;;;14.13;100.00
13420;BME280;6781;58.440;15.470;2023-09-08T03:14:05;103321.44;;;13.26;100.00
13420;BME280;6781;58.440;15.470;2023-09-08T03:16:32;103413.59;;;13.62;100.00
13420;BME280;6781;58.440;15.470;2023-09-08T03:18:58;103542.47;;;14.33;100.00
13420;BME280;6781;58.440;15.470;2023-09-08T03:21:25;103560.97;;;14.48;100.00
13420;BME280;6781;58.440;15.470;2023-09-08T03:23:53;103590.50;;;14.50;100.00
13420;BME280;6781;58.440;15.470;2023-09-08T03:26:21;103420.78;;;13.57;100.00
13420;BME280;6781;58.440;15.470;2023-09-08T03:28:48;103558.16;;;14.33;100.00
13420;BME280;6781;58.440;15.470;2023-09-08T03:31:15;103573.53;;;14.40;100.00
13420;BME280;6781;58.440;15.470;2023-09-08T03:33:42;103452.72;;;13.62;100.00
13420;BME280;6781;58.440;15.470;2023-09-08T03:36:09;103518.16;;;13.95;100.00
13420;BME280;6781;58.440;15.470;2023-09-08T03:38:37;103500.63;;;13.80;100.00
13420;BME280;6781;58.440;15.470;2023-09-08T03:41:06;103524.03;;;13.82;100.00
13420;BME280;6781;58.440;15.470;2023-09-08T03:43:34;103576.00;;;14.05;100.00
13420;BME280;6781;58.440;15.470;2023-09-08T03:46:01;103631.13;;;14.37;100.00
13420;BME280;6781;58.440;15.470;2023-09-08T03:48:28;103504.94;;;13.42;100.00
13420;BME280;6781;58.440;15.470;2023-09-08T03:50:55;103598.06;;;13.98;100.00
13420;BME280;6781;58.440;15.470;2023-09-08T03:53:22;103574.66;;;13.78;100.00
13420;BME280;6781;58.440;15.470;2023-09-08T03:55:49;103646.06;;;14.14;100.00
13420;BME280;6781;58.440;15.470;2023-09-08T03:58:18;103508.84;;;13.32;100.00
13420;BME280;6781;58.440;15.470;2023-09-08T04:00:46;103527.47;;;13.43;100.00
13420;BME280;6781;58.440;15.470;2023-09-08T04:03:13;103678.53;;;14.27;100.00
13420;BME280;6781;58.440;15.470;2023-09-08T04:05:40;103653.59;;;14.01;100.00
13420;BME280;6781;58.440;15.470;2023-09-08T04:08:07;103720.19;;;14.30;100.00
13420;BME280;6781;58.440;15.470;2023-09-08T04:10:35;103608.06;;;13.70;100.00
13420;BME280;6781;58.440;15.470;2023-09-08T04:13:02;103475.72;;;12.93;100.00
13420;BME280;6781;58.440;15.470;2023-09-08T04:15:29;103566.34;;;13.49;100.00
13420;BME280;6781;58.440;15.470;2023-09-08T04:17:57;103587.41;;;13.45;100.00
13420;BME280;6781;58.440;15.470;2023-09-08T04:20:24;103717.06;;;14.43;100.00
13420;BME280;6781;58.440;15.470;2023-09-08T04:22:52;103678.25;;;14.15;100.00
13420;BME280;6781;58.440;15.470;2023-09-08T04:25:21;103712.63;;;14.45;100.00
13420;BME280;6781;58.440;15.470;2023-09-08T04:27:48;103717.72;;;14.48;100.00
13420;BME280;6781;58.440;15.470;2023-09-08T04:30:15;103540.84;;;13.35;100.00
13420;BME280;6781;58.440;15.470;2023-09-08T04:32:42;103676.56;;;14.32;100.00
13420;BME280;6781;58.440;15.470;2023-09-08T04:35:10;103678.81;;;14.21;100.00
13420;BME280;6781;58.440;15.470;2023-09-08T04:37:38;103550.41;;;13.55;100.00
13420;BME280;6781;58.440;15.470;2023-09-08T04:40:06;103667.13;;;14.30;100.00
13420;BME280;6781;58.440;15.470;2023-09-08T04:42:33;103667.63;;;14.38;100.00
13420;BME280;6781;58.440;15.470;2023-09-08T04:45:00;103680.88;;;14.54;100.00
13420;BME280;6781;58.440;15.470;2023-09-08T04:47:27;103546.88;;;13.77;100.00
13420;BME280;6781;58.440;15.470;2023-09-08T04:49:54;103586.22;;;14.10;100.00
13420;BME280;6781;58.440;15.470;2023-09-08T04:52:23;103568.72;;;14.12;100.00
13420;BME280;6781;58.440;15.470;2023-09-08T04:54:50;103590.75;;;14.25;100.00
13420;BME280;6781;58.440;15.470;2023-09-08T04:57:17;103650.94;;;14.61;100.00
13420;BME280;6781;58.440;15.470;2023-09-08T04:59:44;103611.25;;;14.53;100.00
13420;BME280;6781;58.440;15.470;2023-09-08T05:02:11;103627.91;;;14.69;100.00
13420;BME280;6781;58.440;15.470;2023-09-08T05:04:38;103568.97;;;14.45;100.00
13420;BME280;6781;58.440;15.470;2023-09-08T05:07:05;103592.88;;;14.73;100.00
13420;BME280;6781;58.440;15.470;2023-09-08T05:09:34;103567.16;;;14.64;100.00
13420;BME280;6781;58.440;15.470;2023-09-08T05:12:01;103497.03;;;14.19;100.00
13420;BME280;6781;58.440;15.470;2023-09-08T05:14:28;103471.09;;;13.97;100.00
13420;BME280;6781;58.440;15.470;2023-09-08T05:16:55;103531.47;;;14.46;100.00
13420;BME280;6781;58.440;15.470;2023-09-08T05:19:22;103543.19;;;14.56;100.00
13420;BME280;6781;58.440;15.470;2023-09-08T05:21:50;103548.06;;;14.81;100.00
13420;BME280;6781;58.440;15.470;2023-09-08T05:24:17;103540.00;;;14.85;100.00
13420;BME280;6781;58.440;15.470;2023-09-08T05:26:47;103512.41;;;14.80;100.00
13420;BME280;6781;58.440;15.470;2023-09-08T05:29:14;103530.38;;;14.86;100.00
13420;BME280;6781;58.440;15.470;2023-09-08T05:31:42;103398.56;;;13.86;100.00
13420;BME280;6781;58.440;15.470;2023-09-08T05:34:09;103533.69;;;14.72;100.00
13420;BME280;6781;58.440;15.470;2023-09-08T05:36:36;103487.63;;;14.33;100.00
13420;BME280;6781;58.440;15.470;2023-09-08T05:39:06;103612.59;;;14.97;100.00
13420;BME280;6781;58.440;15.470;2023-09-08T05:41:34;103660.75;;;15.11;100.00
13420;BME280;6781;58.440;15.470;2023-09-08T05:44:03;103645.81;;;15.13;100.00
13420;BME280;6781;58.440;15.470;2023-09-08T05:46:30;103672.75;;;15.15;100.00
13420;BME280;6781;58.440;15.470;2023-09-08T05:48:57;103718.50;;;15.42;100.00
13420;BME280;6781;58.440;15.470;2023-09-08T05:51:24;103693.53;;;15.18;100.00
13420;BME280;6781;58.440;15.470;2023-09-08T05:53:51;103661.97;;;15.04;100.00
13420;BME280;6781;58.440;15.470;2023-09-08T05:56:19;103630.66;;;14.66;100.00
13420;BME280;6781;58.440;15.470;2023-09-08T05:58:46;103793.50;;;15.78;100.00
13420;BME280;6781;58.440;15.470;2023-09-08T06:01:15;103675.59;;;15.10;100.00
13420;BME280;6781;58.440;15.470;2023-09-08T06:03:42;103687.59;;;15.14;100.00
13420;BME280;6781;58.440;15.470;2023-09-08T06:06:09;103804.22;;;15.90;100.00
13420;BME280;6781;58.440;15.470;2023-09-08T06:08:36;103820.31;;;16.00;100.00
13420;BME280;6781;58.440;15.470;2023-09-08T06:11:03;103694.00;;;15.26;100.00
13420;BME280;6781;58.440;15.470;2023-09-08T06:13:30;103855.44;;;16.13;100.00
13420;BME280;6781;58.440;15.470;2023-09-08T06:15:57;103787.66;;;15.90;100.00
13420;BME280;6781;58.440;15.470;2023-09-08T06:18:28;103713.69;;;15.33;100.00
13420;BME280;6781;58.440;15.470;2023-09-08T06:20:58;103808.16;;;15.99;100.00
13420;BME280;6781;58.440;15.470;2023-09-08T06:23:25;103856.22;;;16.33;100.00
13420;BME280;6781;58.440;15.470;2023-09-08T06:25:56;103861.91;;;16.41;100.00
13420;BME280;6781;58.440;15.470;2023-09-08T06:28:25;103684.84;;;15.35;100.00
13420;BME280;6781;58.440;15.470;2023-09-08T06:30:52;103822.00;;;16.36;100.00
13420;BME280;6781;58.440;15.470;2023-09-08T06:33:19;103873.94;;;16.62;100.00
13420;BME280;6781;58.440;15.470;2023-09-08T06:35:49;103879.66;;;16.70;100.00
13420;BME280;6781;58.440;15.470;2023-09-08T06:38:16;103791.66;;;16.32;100.00
13420;BME280;6781;58.440;15.470;2023-09-08T06:40:43;103841.69;;;16.77;100.00
13420;BME280;6781;58.440;15.470;2023-09-08T06:43:10;103816.56;;;16.73;100.00
13420;BME280;6781;58.440;15.470;2023-09-08T06:45:37;103852.50;;;17.04;100.00
13420;BME280;6781;58.440;15.470;2023-09-08T06:48:05;103773.94;;;16.70;100.00
13420;BME280;6781;58.440;15.470;2023-09-08T06:50:32;103760.09;;;16.83;100.00
13420;BME280;6781;58.440;15.470;2023-09-08T06:53:02;103699.69;;;16.69;100.00
13420;BME280;6781;58.440;15.470;2023-09-08T06:55:28;103768.13;;;17.12;100.00
13420;BME280;6781;58.440;15.470;2023-09-08T06:57:56;103759.06;;;17.33;100.00
13420;BME280;6781;58.440;15.470;2023-09-08T07:00:23;103722.50;;;17.30;100.00
13420;BME280;6781;58.440;15.470;2023-09-08T07:02:50;103722.13;;;17.36;100.00
13420;BME280;6781;58.440;15.470;2023-09-08T07:05:17;103754.56;;;17.81;100.00
13420;BME280;6781;58.440;15.470;2023-09-08T07:07:44;103757.88;;;17.99;100.00
13420;BME280;6781;58.440;15.470;2023-09-08T07:10:13;103725.13;;;18.04;100.00
13420;BME280;6781;58.440;15.470;2023-09-08T07:12:40;103729.47;;;18.19;100.00
13420;BME280;6781;58.440;15.470;2023-09-08T07:15:08;103722.16;;;18.25;100.00
13420;BME280;6781;58.440;15.470;2023-09-08T07:17:35;103669.22;;;18.31;100.00
13420;BME280;6781;58.440;15.470;2023-09-08T07:20:03;103555.69;;;17.83;100.00
13420;BME280;6781;58.440;15.470;2023-09-08T07:22:30;103518.75;;;17.86;100.00
13420;BME280;6781;58.440;15.470;2023-09-08T07:24:57;103378.19;;;17.25;100.00
13420;BME280;6781;58.440;15.470;2023-09-08T07:27:25;103489.72;;;18.02;100.00
13420;BME280;6781;58.440;15.470;2023-09-08T07:29:53;103425.53;;;18.06;100.00
13420;BME280;6781;58.440;15.470;2023-09-08T07:32:20;103486.19;;;18.69;100.00
13420;BME280;6781;58.440;15.470;2023-09-08T07:34:47;103476.13;;;18.89;100.00
13420;BME280;6781;58.440;15.470;2023-09-08T07:37:20;103429.50;;;18.91;100.00
13420;BME280;6781;58.440;15.470;2023-09-08T07:39:47;103404.34;;;18.87;100.00
13420;BME280;6781;58.440;15.470;2023-09-08T07:42:14;103373.00;;;18.83;100.00
13420;BME280;6781;58.440;15.470;2023-09-08T07:44:42;103358.69;;;18.88;100.00
13420;BME280;6781;58.440;15.470;2023-09-08T07:47:10;103282.22;;;18.40;100.00
13420;BME280;6781;58.440;15.470;2023-09-08T07:49:37;103305.03;;;18.77;100.00
13420;BME280;6781;58.440;15.470;2023-09-08T07:52:04;103285.25;;;18.84;100.00
13420;BME280;6781;58.440;15.470;2023-09-08T07:54:32;103275.66;;;18.96;100.00
13420;BME280;6781;58.440;15.470;2023-09-08T07:57:00;103094.44;;;17.95;100.00
13420;BME280;6781;58.440;15.470;2023-09-08T07:59:26;103220.63;;;18.93;100.00
13420;BME280;6781;58.440;15.470;2023-09-08T08:01:55;103192.69;;;18.79;100.00
13420;BME280;6781;58.440;15.470;2023-09-08T08:04:22;103171.19;;;18.85;100.00
13420;BME280;6781;58.440;15.470;2023-09-08T08:06:49;103200.66;;;19.26;100.00
13420;BME280;6781;58.440;15.470;2023-09-08T08:09:16;103129.84;;;18.88;100.00
13420;BME280;6781;58.440;15.470;2023-09-08T08:11:44;103145.63;;;19.23;100.00
13420;BME280;6781;58.440;15.470;2023-09-08T08:14:11;103010.81;;;18.49;100.00
13420;BME280;6781;58.440;15.470;2023-09-08T08:16:37;103043.72;;;18.78;100.00
13420;BME280;6781;58.440;15.470;2023-09-08T08:19:06;103104.03;;;19.39;100.00
13420;BME280;6781;58.440;15.470;2023-09-08T08:21:33;103106.81;;;19.48;100.00
13420;BME280;6781;58.440;15.470;2023-09-08T08:24:00;103058.13;;;19.54;100.00
13420;BME280;6781;58.440;15.470;2023-09-08T08:26:27;103055.63;;;19.86;100.00
13420;BME280;6781;58.440;15.470;2023-09-08T08:28:58;103002.81;;;19.88;100.00
13420;BME280;6781;58.440;15.470;2023-09-08T08:31:25;102946.75;;;19.86;100.00
13420;BME280;6781;58.440;15.470;2023-09-08T08:33:52;102989.63;;;20.31;100.00
13420;BME280;6781;58.440;15.470;2023-09-08T08:36:20;102849.63;;;19.92;100.00
13420;BME280;6781;58.440;15.470;2023-09-08T08:38:47;102897.38;;;20.31;100.00
13420;BME280;6781;58.440;15.470;2023-09-08T08:41:15;102853.75;;;20.27;100.00
13420;BME280;6781;58.440;15.470;2023-09-08T08:43:42;102763.78;;;20.10;100.00
13420;BME280;6781;58.440;15.470;2023-09-08T08:46:10;102757.72;;;20.20;100.00
13420;BME280;6781;58.440;15.470;2023-09-08T08:48:40;102760.66;;;20.47;100.00
13420;BME280;6781;58.440;15.470;2023-09-08T08:51:08;102723.09;;;20.55;100.00
13420;BME280;6781;58.440;15.470;2023-09-08T08:53:39;102645.25;;;20.30;100.00
13420;BME280;6781;58.440;15.470;2023-09-08T08:56:07;102585.81;;;20.06;100.00
13420;BME280;6781;58.440;15.470;2023-09-08T08:58:36;102503.44;;;19.64;100.00
13420;BME280;6781;58.440;15.470;2023-09-08T09:01:03;102555.28;;;20.04;100.00
13420;BME280;6781;58.440;15.470;2023-09-08T09:03:31;102595.81;;;20.62;100.00
13420;BME280;6781;58.440;15.470;2023-09-08T09:06:00;102575.69;;;20.61;100.00
13420;BME280;6781;58.440;15.470;2023-09-08T09:08:27;102559.97;;;20.89;100.00
13420;BME280;6781;58.440;15.470;2023-09-08T09:10:57;102482.81;;;20.67;100.00
13420;BME280;6781;58.440;15.470;2023-09-08T09:13:24;102461.41;;;20.80;100.00
13420;BME280;6781;58.440;15.470;2023-09-08T09:15:51;102479.56;;;20.93;100.00
13420;BME280;6781;58.440;15.470;2023-09-08T09:18:18;102428.16;;;20.97;100.00
13420;BME280;6781;58.440;15.470;2023-09-08T09:20:53;102388.03;;;20.46;100.00
13420;BME280;6781;58.440;15.470;2023-09-08T09:23:27;102346.94;;;20.54;100.00
13420;BME280;6781;58.440;15.470;2023-09-08T09:25:54;102337.66;;;20.87;100.00
13420;BME280;6781;58.440;15.470;2023-09-08T09:28:24;102275.03;;;20.61;100.00
13420;BME280;6781;58.440;15.470;2023-09-08T09:30:51;102193.25;;;20.34;100.00
13420;BME280;6781;58.440;15.470;2023-09-08T09:33:20;102308.81;;;21.03;100.00
13420;BME280;6781;58.440;15.470;2023-09-08T09:35:49;102294.44;;;20.70;100.00
13420;BME280;6781;58.440;15.470;2023-09-08T09:38:17;102284.94;;;20.50;100.00
13420;BME280;6781;58.440;15.470;2023-09-08T09:40:45;102285.28;;;20.64;100.00
13420;BME280;6781;58.440;15.470;2023-09-08T09:43:14;102249.25;;;20.55;100.00
13420;BME280;6781;58.440;15.470;2023-09-08T09:45:42;102250.91;;;20.56;100.00
13420;BME280;6781;58.440;15.470;2023-09-08T09:48:10;102255.78;;;20.51;100.00
13420;BME280;6781;58.440;15.470;2023-09-08T09:50:38;102274.63;;;21.11;100.00
13420;BME280;6781;58.440;15.470;2023-09-08T09:53:09;102258.59;;;21.22;100.00
13420;BME280;6781;58.440;15.470;2023-09-08T09:55:37;102255.50;;;21.62;100.00
13420;BME280;6781;58.440;15.470;2023-09-08T09:58:05;102224.47;;;21.82;100.00
13420;BME280;6781;58.440;15.470;2023-09-08T10:00:33;102108.69;;;21.52;100.00
13420;BME280;6781;58.440;15.470;2023-09-08T10:03:04;102164.00;;;22.05;100.00
13420;BME280;6781;58.440;15.470;2023-09-08T10:05:32;102043.84;;;21.31;100.00
13420;BME280;6781;58.440;15.470;2023-09-08T10:08:00;102062.38;;;21.39;100.00
13420;BME280;6781;58.440;15.470;2023-09-08T10:10:29;102077.75;;;21.70;100.00
13420;BME280;6781;58.440;15.470;2023-09-08T10:13:02;102032.47;;;21.31;100.00
13420;BME280;6781;58.440;15.470;2023-09-08T10:15:33;102078.72;;;21.69;100.00
13420;BME280;6781;58.440;15.470;2023-09-08T10:18:05;102033.59;;;21.28;100.00
13420;BME280;6781;58.440;15.470;2023-09-08T10:20:33;102062.31;;;21.57;100.00
13420;BME280;6781;58.440;15.470;2023-09-08T10:23:06;101995.53;;;21.13;100.00
13420;BME280;6781;58.440;15.470;2023-09-08T10:25:38;102039.34;;;21.50;100.00
13420;BME280;6781;58.440;15.470;2023-09-08T10:28:06;102067.84;;;21.72;100.00
13420;BME280;6781;58.440;15.470;2023-09-08T10:30:34;102064.38;;;21.71;100.00
13420;BME280;6781;58.440;15.470;2023-09-08T10:33:02;101946.88;;;21.41;100.00
13420;BME280;6781;58.440;15.470;2023-09-08T10:35:31;102042.63;;;22.12;100.00
13420;BME280;6781;58.440;15.470;2023-09-08T10:38:22;102038.69;;;22.24;100.00
13420;BME280;6781;58.440;15.470;2023-09-08T10:40:49;102012.78;;;22.52;100.00
13420;BME280;6781;58.440;15.470;2023-09-08T10:43:18;102006.47;;;22.61;100.00
13420;BME280;6781;58.440;15.470;2023-09-08T10:45:45;101982.50;;;22.79;100.00
13420;BME280;6781;58.440;15.470;2023-09-08T10:48:12;101925.31;;;22.29;100.00
13420;BME280;6781;58.440;15.470;2023-09-08T10:50:42;101862.47;;;21.82;100.00
13420;BME280;6781;58.440;15.470;2023-09-08T10:53:14;101941.19;;;22.29;100.00
13420;BME280;6781;58.440;15.470;2023-09-08T10:55:42;101833.44;;;21.90;100.00
13420;BME280;6781;58.440;15.470;2023-09-08T10:58:17;101819.88;;;21.93;100.00
13420;BME280;6781;58.440;15.470;2023-09-08T11:00:47;101948.59;;;22.82;100.00
13420;BME280;6781;58.440;15.470;2023-09-08T11:03:26;101894.41;;;22.05;100.00
13420;BME280;6781;58.440;15.470;2023-09-08T11:05:56;101937.06;;;22.26;100.00
13420;BME280;6781;58.440;15.470;2023-09-08T11:08:23;101915.22;;;22.08;100.00
13420;BME280;6781;58.440;15.470;2023-09-08T11:10:50;101938.78;;;21.85;100.00
13420;BME280;6781;58.440;15.470;2023-09-08T11:13:17;101950.69;;;21.89;100.00
13420;BME280;6781;58.440;15.470;2023-09-08T11:15:45;101932.53;;;21.94;100.00
13420;BME280;6781;58.440;15.470;2023-09-08T11:18:12;101970.59;;;22.18;100.00
13420;BME280;6781;58.440;15.470;2023-09-08T11:20:39;101838.66;;;21.50;100.00
13420;BME280;6781;58.440;15.470;2023-09-08T11:23:07;101967.94;;;22.58;100.00
13420;BME280;6781;58.440;15.470;2023-09-08T11:25:34;101827.81;;;21.85;100.00
13420;BME280;6781;58.440;15.470;2023-09-08T11:28:02;101862.38;;;22.32;100.00
13420;BME280;6781;58.440;15.470;2023-09-08T11:30:29;101950.03;;;23.09;100.00
13420;BME280;6781;58.440;15.470;2023-09-08T11:32:56;101865.56;;;22.91;100.00
13420;BME280;6781;58.440;15.470;2023-09-08T11:35:26;101799.28;;;22.68;100.00
13420;BME280;6781;58.440;15.470;2023-09-08T11:37:59;101878.72;;;23.47;100.00
13420;BME280;6781;58.440;15.470;2023-09-08T11:40:28;101826.28;;;23.11;100.00
13420;BME280;6781;58.440;15.470;2023-09-08T11:42:55;101753.66;;;22.66;100.00
13420;BME280;6781;58.440;15.470;2023-09-08T11:45:22;101851.47;;;23.69;100.00
13420;BME280;6781;58.440;15.470;2023-09-08T11:47:51;101808.91;;;23.40;100.00
13420;BME280;6781;58.440;15.470;2023-09-08T11:50:19;101821.84;;;23.34;100.00
13420;BME280;6781;58.440;15.470;2023-09-08T11:52:48;101833.97;;;23.60;100.00
13420;BME280;6781;58.440;15.470;2023-09-08T11:55:15;101823.22;;;23.53;100.00
13420;BME280;6781;58.440;15.470;2023-09-08T11:57:47;101748.97;;;23.38;100.00
13420;BME280;6781;58.440;15.470;2023-09-08T12:00:17;101803.78;;;24.07;100.00
13420;BME280;6781;58.440;15.470;2023-09-08T12:02:46;101791.09;;;24.17;100.00
13420;BME280;6781;58.440;15.470;2023-09-08T12:05:19;101719.53;;;23.79;100.00
13420;BME280;6781;58.440;15.470;2023-09-08T12:07:47;101697.19;;;23.59;100.00
13420;BME280;6781;58.440;15.470;2023-09-08T12:10:14;101725.16;;;23.61;100.00
13420;BME280;6781;58.440;15.470;2023-09-08T12:12:46;101748.75;;;23.71;100.00
13420;BME280;6781;58.440;15.470;2023-09-08T12:15:30;101761.91;;;24.02;100.00
13420;BME280;6781;58.440;15.470;2023-09-08T12:17:59;101751.75;;;24.06;100.00
13420;BME280;6781;58.440;15.470;2023-09-08T12:20:27;101760.09;;;24.17;100.00
13420;BME280;6781;58.440;15.470;2023-09-08T12:22:54;101755.41;;;24.05;100.00
13420;BME280;6781;58.440;15.470;2023-09-08T12:25:21;101761.19;;;24.08;100.00
13420;BME280;6781;58.440;15.470;2023-09-08T12:27:54;101751.00;;;23.97;100.00
13420;BME280;6781;58.440;15.470;2023-09-08T12:30:22;101750.38;;;23.57;100.00
13420;BME280;6781;58.440;15.470;2023-09-08T12:32:56;101728.16;;;23.35;100.00
13420;BME280;6781;58.440;15.470;2023-09-08T12:35:24;101777.34;;;23.53;100.00
13420;BME280;6781;58.440;15.470;2023-09-08T12:37:58;101777.84;;;23.79;100.00
13420;BME280;6781;58.440;15.470;2023-09-08T12:40:26;101687.28;;;23.53;100.00
13420;BME280;6781;58.440;15.470;2023-09-08T12:42:55;101773.38;;;23.57;100.00
13420;BME280;6781;58.440;15.470;2023-09-08T12:45:25;101733.06;;;23.84;100.00
13420;BME280;6781;58.440;15.470;2023-09-08T12:47:52;101739.50;;;24.05;100.00